createdAt,value
2022-07-30T00:00:36.650Z,27.39
2022-07-30T00:03:05.666Z,27.40
2022-07-30T00:05:34.930Z,27.38
2022-07-30T00:08:05.730Z,27.36
2022-07-30T00:10:34.563Z,27.35
2022-07-30T00:13:03.087Z,27.36
2022-07-30T00:15:32.998Z,27.33
2022-07-30T00:18:01.860Z,27.33
2022-07-30T00:20:30.789Z,27.31
2022-07-30T00:23:05.287Z,27.30
2022-07-30T00:25:34.695Z,27.28
2022-07-30T00:28:03.301Z,27.26
2022-07-30T00:30:31.972Z,27.25
2022-07-30T00:33:00.527Z,27.22
2022-07-30T00:35:29.397Z,27.20
2022-07-30T00:37:58.297Z,27.17
2022-07-30T00:40:28.593Z,27.15
2022-07-30T00:42:57.488Z,27.12
2022-07-30T00:45:27.743Z,27.10
2022-07-30T00:47:56.436Z,27.09
2022-07-30T00:50:25.131Z,27.08
2022-07-30T00:52:53.804Z,27.07
2022-07-30T00:55:22.436Z,27.05
2022-07-30T00:57:52.722Z,27.03
2022-07-30T01:00:21.627Z,27.01
2022-07-30T01:02:50.233Z,26.98
2022-07-30T01:05:19.844Z,26.96
2022-07-30T01:07:49.191Z,26.95
2022-07-30T01:10:17.895Z,26.94
2022-07-30T01:12:48.089Z,26.92
2022-07-30T01:15:18.060Z,26.92
2022-07-30T01:17:49.891Z,26.90
2022-07-30T01:20:27.300Z,26.90
2022-07-30T01:23:05.918Z,26.87
2022-07-30T01:25:54.477Z,26.84
2022-07-30T01:28:28.928Z,26.83
2022-07-30T01:30:59.418Z,26.78
2022-07-30T01:33:30.844Z,26.77
2022-07-30T01:36:02.640Z,26.75
2022-07-30T01:38:35.277Z,26.73
2022-07-30T01:41:08.076Z,26.73
2022-07-30T01:43:38.956Z,26.71
2022-07-30T01:46:08.628Z,26.69
2022-07-30T01:48:41.714Z,26.67
2022-07-30T01:51:14.462Z,26.65
2022-07-30T01:53:49.393Z,26.63
2022-07-30T01:56:25.170Z,26.62
2022-07-30T01:58:57.161Z,26.60
2022-07-30T02:01:27.948Z,26.59
2022-07-30T02:04:04.193Z,26.56
2022-07-30T02:06:40.449Z,26.55
2022-07-30T02:09:12.701Z,26.52
2022-07-30T02:12:04.343Z,26.51
2022-07-30T02:14:41.264Z,26.48
2022-07-30T02:17:18.901Z,26.46
2022-07-30T02:19:52.920Z,26.44
2022-07-30T02:22:24.356Z,26.43
2022-07-30T02:24:56.037Z,26.40
2022-07-30T02:27:29.546Z,26.40
2022-07-30T02:30:02.418Z,26.37
2022-07-30T02:32:37.320Z,26.37
2022-07-30T02:35:15.202Z,26.35
2022-07-30T02:37:44.827Z,26.32
2022-07-30T02:40:18.161Z,26.32
2022-07-30T02:42:51.716Z,26.30
2022-07-30T02:45:26.301Z,26.29
2022-07-30T02:48:01.153Z,26.28
2022-07-30T02:50:30.607Z,26.26
2022-07-30T02:53:01.165Z,26.25
2022-07-30T02:55:34.916Z,26.23
2022-07-30T02:58:07.319Z,26.22
2022-07-30T03:00:37.098Z,26.20
2022-07-30T03:03:08.346Z,26.19
2022-07-30T03:05:40.414Z,26.18
2022-07-30T03:08:10.104Z,26.17
2022-07-30T03:10:41.433Z,26.17
2022-07-30T03:13:13.617Z,26.16
2022-07-30T03:15:48.998Z,26.15
2022-07-30T03:18:21.295Z,26.13
2022-07-30T03:20:53.250Z,26.13
2022-07-30T03:23:24.361Z,26.11
2022-07-30T03:25:56.739Z,26.10
2022-07-30T03:28:29.454Z,26.07
2022-07-30T03:30:59.142Z,26.04
2022-07-30T03:33:38.022Z,26.03
2022-07-30T03:36:09.913Z,26.00
2022-07-30T03:38:40.916Z,25.99
2022-07-30T03:41:11.397Z,25.97
2022-07-30T03:43:43.813Z,25.95
2022-07-30T03:46:14.866Z,25.94
2022-07-30T03:48:47.681Z,25.93
2022-07-30T03:51:17.976Z,25.91
2022-07-30T03:53:48.452Z,25.90
2022-07-30T03:56:36.231Z,25.86
2022-07-30T03:59:26.781Z,25.84
2022-07-30T04:01:56.550Z,25.83
2022-07-30T04:05:04.987Z,25.81
2022-07-30T04:07:34.647Z,25.79
2022-07-30T04:10:11.356Z,25.78
2022-07-30T04:12:58.338Z,25.76
2022-07-30T04:16:05.995Z,25.76
2022-07-30T04:18:20.190Z,25.73
2022-07-30T04:20:52.253Z,25.72
2022-07-30T04:23:21.101Z,25.72
2022-07-30T04:25:51.745Z,25.72
2022-07-30T04:28:22.215Z,25.68
2022-07-30T04:30:52.366Z,25.69
2022-07-30T04:33:21.452Z,25.67
2022-07-30T04:36:19.271Z,25.65
2022-07-30T04:38:48.342Z,25.64
2022-07-30T04:41:17.067Z,25.63
2022-07-30T04:44:06.465Z,25.60
2022-07-30T04:46:41.792Z,25.61
2022-07-30T04:49:11.703Z,25.60
2022-07-30T04:51:40.749Z,25.59
2022-07-30T04:54:15.681Z,25.59
2022-07-30T04:56:53.171Z,25.58
2022-07-30T04:59:26.359Z,25.58
2022-07-30T05:02:00.187Z,25.58
2022-07-30T05:04:32.119Z,25.58
2022-07-30T05:07:02.304Z,25.58
2022-07-30T05:09:32.134Z,25.59
2022-07-30T05:12:01.087Z,25.57
2022-07-30T05:14:30.000Z,25.58
2022-07-30T05:17:00.633Z,25.58
2022-07-30T05:19:30.615Z,25.58
2022-07-30T05:22:02.365Z,25.59
2022-07-30T05:24:33.804Z,25.60
2022-07-30T05:27:04.080Z,25.60
2022-07-30T05:29:32.983Z,25.61
2022-07-30T05:32:14.598Z,25.62
2022-07-30T05:34:44.219Z,25.61
2022-07-30T05:37:18.817Z,25.61
2022-07-30T05:39:58.850Z,25.61
2022-07-30T05:42:50.236Z,25.59
2022-07-30T05:45:19.108Z,25.60
2022-07-30T05:47:49.612Z,25.59
2022-07-30T05:50:19.236Z,25.59
2022-07-30T05:52:47.776Z,25.59
2022-07-30T05:55:36.409Z,25.56
2022-07-30T05:58:39.955Z,25.52
2022-07-30T06:01:09.233Z,25.51
2022-07-30T06:03:39.551Z,25.52
2022-07-30T06:06:43.319Z,25.49
2022-07-30T06:09:12.355Z,25.50
2022-07-30T06:11:42.226Z,25.52
2022-07-30T06:14:10.974Z,25.52
2022-07-30T06:16:42.560Z,25.55
2022-07-30T06:19:19.404Z,25.57
2022-07-30T06:22:05.637Z,25.58
2022-07-30T06:24:38.721Z,25.57
2022-07-30T06:27:12.627Z,25.59
2022-07-30T06:29:41.387Z,25.60
2022-07-30T06:32:10.988Z,25.58
2022-07-30T06:34:41.257Z,25.57
2022-07-30T06:37:10.012Z,25.56
2022-07-30T06:39:57.922Z,25.53
2022-07-30T06:42:41.435Z,25.53
2022-07-30T06:45:32.014Z,25.54
2022-07-30T06:48:17.189Z,25.52
2022-07-30T06:50:47.976Z,25.53
2022-07-30T06:53:16.793Z,25.50
2022-07-30T06:56:11.693Z,25.48
2022-07-30T06:58:54.353Z,25.45
2022-07-30T07:01:58.221Z,25.41
2022-07-30T07:04:27.329Z,25.37
2022-07-30T07:06:57.376Z,25.37
2022-07-30T07:09:31.675Z,25.36
2022-07-30T07:12:41.606Z,25.31
2022-07-30T07:15:11.306Z,25.34
2022-07-30T07:17:41.849Z,25.37
2022-07-30T07:20:27.584Z,25.39
2022-07-30T07:23:09.201Z,25.46
2022-07-30T07:25:41.123Z,25.49
2022-07-30T07:28:13.387Z,25.54
2022-07-30T07:30:45.731Z,25.55
2022-07-30T07:33:16.505Z,25.57
2022-07-30T07:35:49.481Z,25.57
2022-07-30T07:38:29.873Z,25.60
2022-07-30T07:40:59.541Z,25.63
2022-07-30T07:43:29.450Z,25.63
2022-07-30T07:46:00.776Z,25.63
2022-07-30T07:48:32.576Z,25.62
2022-07-30T07:51:47.253Z,25.62
2022-07-30T07:54:22.623Z,25.64
2022-07-30T07:56:57.382Z,25.64
2022-07-30T07:59:41.015Z,25.64
2022-07-30T08:02:17.423Z,25.64
2022-07-30T08:05:08.073Z,25.63
2022-07-30T08:07:39.576Z,25.61
2022-07-30T08:10:28.026Z,25.60
2022-07-30T08:13:48.440Z,25.58
2022-07-30T08:16:39.236Z,25.60
2022-07-30T08:19:36.154Z,25.62
2022-07-30T08:22:19.372Z,25.65
2022-07-30T08:24:47.978Z,25.70
2022-07-30T08:27:19.400Z,25.76
2022-07-30T08:29:49.250Z,25.78
2022-07-30T08:32:17.861Z,25.80
2022-07-30T08:34:48.138Z,25.82
2022-07-30T08:37:17.224Z,25.86
2022-07-30T08:39:45.828Z,25.89
2022-07-30T08:42:16.935Z,25.94
2022-07-30T08:44:47.453Z,26.02
2022-07-30T08:47:20.422Z,26.10
2022-07-30T08:50:12.388Z,26.11
2022-07-30T08:53:04.905Z,26.16
2022-07-30T08:55:34.384Z,26.18
2022-07-30T08:58:06.593Z,26.21
2022-07-30T09:00:35.424Z,26.27
2022-07-30T09:03:04.029Z,26.33
2022-07-30T09:05:33.228Z,26.40
2022-07-30T09:08:03.265Z,26.46
2022-07-30T09:10:35.055Z,26.52
2022-07-30T09:13:05.197Z,26.56
2022-07-30T09:15:34.127Z,26.61
2022-07-30T09:18:04.916Z,26.66
2022-07-30T09:20:38.101Z,26.73
2022-07-30T09:23:09.996Z,26.77
2022-07-30T09:25:58.666Z,26.79
2022-07-30T09:28:46.970Z,26.85
2022-07-30T09:31:16.522Z,26.91
2022-07-30T09:34:29.293Z,26.94
2022-07-30T09:37:22.098Z,26.99
2022-07-30T09:40:15.671Z,27.08
2022-07-30T09:43:08.012Z,27.15
2022-07-30T09:45:57.075Z,27.23
2022-07-30T09:48:28.708Z,27.28
2022-07-30T09:50:57.898Z,27.33
2022-07-30T09:53:26.850Z,27.39
2022-07-30T09:55:56.344Z,27.46
2022-07-30T09:58:40.361Z,27.54
2022-07-30T10:01:16.343Z,27.59
2022-07-30T10:04:08.003Z,27.65
2022-07-30T10:06:58.063Z,27.68
2022-07-30T10:09:45.248Z,27.70
2022-07-30T10:12:17.217Z,27.76
2022-07-30T10:14:51.090Z,27.82
2022-07-30T10:17:23.485Z,27.88
2022-07-30T10:20:14.654Z,27.91
2022-07-30T10:23:27.085Z,27.97
2022-07-30T10:26:22.607Z,28.07
2022-07-30T10:29:12.922Z,28.14
2022-07-30T10:31:48.309Z,28.21
2022-07-30T10:34:23.663Z,28.27
2022-07-30T10:37:06.787Z,28.33
2022-07-30T10:39:39.444Z,28.36
2022-07-30T10:42:22.102Z,28.40
2022-07-30T10:45:17.361Z,28.47
2022-07-30T10:47:49.686Z,28.55
2022-07-30T10:50:22.692Z,28.62
2022-07-30T10:52:53.826Z,28.66
2022-07-30T10:55:36.582Z,28.71
2022-07-30T10:58:09.689Z,28.70
2022-07-30T11:01:01.404Z,28.73
2022-07-30T11:03:41.464Z,28.77
2022-07-30T11:06:30.408Z,28.83
2022-07-30T11:08:59.399Z,28.84
2022-07-30T11:12:15.888Z,28.81
2022-07-30T11:15:07.052Z,28.82
2022-07-30T11:18:12.696Z,28.81
2022-07-30T11:20:48.298Z,28.84
2022-07-30T11:23:41.047Z,28.87
2022-07-30T11:26:13.953Z,28.87
2022-07-30T11:28:46.206Z,28.92
2022-07-30T11:31:54.884Z,29.00
2022-07-30T11:34:28.849Z,29.02
2022-07-30T11:37:19.264Z,29.07
2022-07-30T11:40:13.193Z,29.14
2022-07-30T11:42:43.789Z,29.21
2022-07-30T11:45:33.020Z,29.29
2022-07-30T11:48:02.381Z,29.36
2022-07-30T11:50:34.420Z,29.44
2022-07-30T11:53:05.631Z,29.49
2022-07-30T11:55:39.719Z,29.58
2022-07-30T11:58:11.056Z,29.65
2022-07-30T12:00:41.917Z,29.71
2022-07-30T12:03:12.325Z,29.76
2022-07-30T12:05:42.197Z,29.84
2022-07-30T12:08:35.271Z,29.87
2022-07-30T12:11:03.102Z,29.89
2022-07-30T12:13:44.316Z,29.94
2022-07-30T12:16:17.518Z,30.00
2022-07-30T12:18:47.737Z,30.04
2022-07-30T12:21:17.120Z,30.06
2022-07-30T12:23:56.711Z,30.11
2022-07-30T12:26:30.249Z,30.14
2022-07-30T12:29:02.406Z,30.16
2022-07-30T12:31:31.350Z,30.19
2022-07-30T12:34:00.712Z,30.24
2022-07-30T12:36:32.020Z,30.29
2022-07-30T12:39:02.717Z,30.32
2022-07-30T12:41:46.773Z,30.37
2022-07-30T12:44:38.365Z,30.44
2022-07-30T12:47:11.899Z,30.49
2022-07-30T12:49:45.773Z,30.51
2022-07-30T12:52:28.361Z,30.55
2022-07-30T12:55:06.879Z,30.59
2022-07-30T12:58:02.872Z,30.64
2022-07-30T13:00:52.261Z,30.66
2022-07-30T13:03:22.711Z,30.70
2022-07-30T13:05:55.669Z,30.75
2022-07-30T13:08:53.230Z,30.80
2022-07-30T13:11:24.463Z,30.85
2022-07-30T13:13:54.803Z,30.90
2022-07-30T13:16:23.509Z,30.92
2022-07-30T13:18:52.308Z,30.97
2022-07-30T13:21:20.967Z,31.01
2022-07-30T13:23:49.743Z,31.05
2022-07-30T13:26:18.551Z,31.06
2022-07-30T13:28:47.546Z,31.09
2022-07-30T13:31:18.301Z,31.11
2022-07-30T13:33:47.016Z,31.14
2022-07-30T13:36:15.761Z,31.17
2022-07-30T13:38:44.379Z,31.19
2022-07-30T13:41:13.506Z,31.19
2022-07-30T13:43:42.344Z,31.18
2022-07-30T13:46:11.023Z,31.18
2022-07-30T13:48:42.087Z,31.17
2022-07-30T13:51:10.878Z,31.17
2022-07-30T13:53:39.396Z,31.20
2022-07-30T13:56:12.529Z,31.19
2022-07-30T13:58:42.261Z,31.20
2022-07-30T14:01:15.800Z,31.20
2022-07-30T14:03:50.789Z,31.17
2022-07-30T14:06:20.145Z,31.15
2022-07-30T14:08:48.882Z,31.12
2022-07-30T14:11:24.344Z,31.12
2022-07-30T14:13:58.987Z,31.12
2022-07-30T14:16:44.612Z,31.14
2022-07-30T14:19:23.406Z,31.18
2022-07-30T14:21:54.127Z,31.18
2022-07-30T14:24:23.736Z,31.20
2022-07-30T14:26:57.698Z,31.23
2022-07-30T14:29:27.616Z,31.27
2022-07-30T14:31:57.545Z,31.30
2022-07-30T14:34:28.300Z,31.35
2022-07-30T14:36:57.011Z,31.40
2022-07-30T14:39:26.033Z,31.46
2022-07-30T14:41:56.189Z,31.53
2022-07-30T14:44:25.312Z,31.60
2022-07-30T14:46:54.204Z,31.64
2022-07-30T14:49:24.029Z,31.66
2022-07-30T14:51:54.385Z,31.69
2022-07-30T14:54:23.598Z,31.67
2022-07-30T14:56:57.721Z,31.62
2022-07-30T14:59:27.944Z,31.59
2022-07-30T15:01:58.003Z,31.60
2022-07-30T15:04:27.019Z,31.60
2022-07-30T15:06:57.245Z,31.66
2022-07-30T15:09:25.949Z,31.68
2022-07-30T15:12:23.785Z,31.65
2022-07-30T15:14:45.842Z,31.63
2022-07-30T15:17:14.663Z,31.66
2022-07-30T15:19:49.230Z,31.68
2022-07-30T15:22:21.602Z,31.70
2022-07-30T15:24:50.235Z,31.69
2022-07-30T15:27:22.421Z,31.68
2022-07-30T15:29:56.898Z,31.70
2022-07-30T15:32:25.613Z,31.69
2022-07-30T15:34:55.200Z,31.67
2022-07-30T15:37:25.296Z,31.63
2022-07-30T15:39:53.946Z,31.58
2022-07-30T15:42:22.826Z,31.58
2022-07-30T15:45:15.310Z,31.59
2022-07-30T15:47:40.271Z,31.56
2022-07-30T15:50:10.684Z,31.58
2022-07-30T15:52:40.922Z,31.61
2022-07-30T15:55:10.110Z,31.60
2022-07-30T15:57:38.970Z,31.56
2022-07-30T16:00:09.752Z,31.53
2022-07-30T16:02:41.332Z,31.50
2022-07-30T16:05:13.885Z,31.50
2022-07-30T16:07:44.943Z,31.50
2022-07-30T16:10:13.889Z,31.50
2022-07-30T16:12:43.083Z,31.52
2022-07-30T16:15:12.349Z,31.52
2022-07-30T16:17:40.906Z,31.53
2022-07-30T16:20:10.819Z,31.52
2022-07-30T16:22:39.621Z,31.49
2022-07-30T16:25:10.564Z,31.47
2022-07-30T16:27:39.454Z,31.43
2022-07-30T16:30:10.318Z,31.44
2022-07-30T16:32:38.875Z,31.43
2022-07-30T16:35:13.015Z,31.42
2022-07-30T16:37:41.974Z,31.42
2022-07-30T16:40:13.287Z,31.42
2022-07-30T16:42:42.028Z,31.38
2022-07-30T16:45:11.674Z,31.34
2022-07-30T16:47:40.569Z,31.30
2022-07-30T16:50:11.115Z,31.25
2022-07-30T16:52:39.746Z,31.23
2022-07-30T16:55:09.615Z,31.20
2022-07-30T16:57:39.634Z,31.18
2022-07-30T17:00:12.281Z,31.15
2022-07-30T17:02:40.949Z,31.15
2022-07-30T17:05:13.686Z,31.16
2022-07-30T17:07:42.981Z,31.15
2022-07-30T17:10:12.807Z,31.13
2022-07-30T17:12:50.867Z,31.14
2022-07-30T17:15:19.805Z,31.13
2022-07-30T17:17:48.704Z,31.13
2022-07-30T17:20:18.206Z,31.13
2022-07-30T17:22:47.076Z,31.13
2022-07-30T17:25:15.941Z,31.12
2022-07-30T17:27:45.905Z,31.08
2022-07-30T17:30:14.928Z,31.05
2022-07-30T17:32:43.532Z,31.01
2022-07-30T17:35:14.001Z,30.97
2022-07-30T17:37:43.060Z,30.94
2022-07-30T17:40:28.824Z,30.95
2022-07-30T17:43:04.656Z,30.95
2022-07-30T17:45:34.978Z,30.94
2022-07-30T17:48:04.205Z,30.93
2022-07-30T17:50:34.197Z,30.94
2022-07-30T17:53:05.732Z,30.94
2022-07-30T17:55:35.705Z,30.93
2022-07-30T17:58:06.973Z,30.95
2022-07-30T18:00:36.306Z,30.93
2022-07-30T18:03:05.448Z,30.94
2022-07-30T18:05:34.042Z,30.94
2022-07-30T18:08:02.612Z,30.93
2022-07-30T18:10:31.268Z,30.93
2022-07-30T18:12:59.823Z,30.96
2022-07-30T18:15:49.929Z,30.97
2022-07-30T18:18:18.893Z,30.98
2022-07-30T18:20:48.279Z,30.98
2022-07-30T18:23:19.171Z,30.99
2022-07-30T18:25:51.571Z,31.00
2022-07-30T18:28:21.708Z,30.98
2022-07-30T18:30:51.930Z,31.00
2022-07-30T18:33:21.231Z,31.00
2022-07-30T18:35:50.847Z,30.99
2022-07-30T18:38:19.534Z,30.99
2022-07-30T18:40:57.708Z,30.98
2022-07-30T18:43:27.653Z,30.98
2022-07-30T18:46:00.276Z,30.98
2022-07-30T18:48:29.044Z,30.98
2022-07-30T18:50:57.646Z,30.97
2022-07-30T18:53:26.204Z,30.96
2022-07-30T18:55:54.970Z,30.94
2022-07-30T18:58:24.230Z,30.92
2022-07-30T19:00:53.709Z,30.90
2022-07-30T19:03:25.446Z,30.90
2022-07-30T19:05:54.595Z,30.89
2022-07-30T19:08:24.936Z,30.88
2022-07-30T19:10:53.772Z,30.86
2022-07-30T19:13:23.528Z,30.86
2022-07-30T19:15:52.342Z,30.84
2022-07-30T19:18:20.928Z,30.84
2022-07-30T19:20:51.664Z,30.83
2022-07-30T19:23:21.862Z,30.82
2022-07-30T19:25:50.811Z,30.82
2022-07-30T19:28:19.418Z,30.79
2022-07-30T19:30:48.233Z,30.78
2022-07-30T19:33:17.644Z,30.78
2022-07-30T19:35:47.266Z,30.76
2022-07-30T19:38:22.249Z,30.74
2022-07-30T19:40:52.650Z,30.72
2022-07-30T19:43:24.140Z,30.72
2022-07-30T19:45:53.476Z,30.71
2022-07-30T19:48:29.474Z,30.69
2022-07-30T19:51:01.644Z,30.69
2022-07-30T19:53:33.996Z,30.67
2022-07-30T19:56:08.328Z,30.66
2022-07-30T19:58:40.450Z,30.63
2022-07-30T20:01:09.926Z,30.60
2022-07-30T20:03:39.917Z,30.60
2022-07-30T20:06:14.863Z,30.58
2022-07-30T20:08:46.117Z,30.57
2022-07-30T20:11:34.872Z,30.56
2022-07-30T20:14:05.650Z,30.54
2022-07-30T20:16:35.633Z,30.51
2022-07-30T20:19:05.707Z,30.49
2022-07-30T20:21:56.986Z,30.47
2022-07-30T20:24:27.221Z,30.47
2022-07-30T20:26:56.513Z,30.46
2022-07-30T20:29:25.733Z,30.45
2022-07-30T20:31:56.303Z,30.44
2022-07-30T20:34:25.972Z,30.42
2022-07-30T20:36:56.613Z,30.42
2022-07-30T20:39:27.871Z,30.42
2022-07-30T20:42:08.786Z,30.39
2022-07-30T20:44:40.482Z,30.39
2022-07-30T20:47:18.200Z,30.36
2022-07-30T20:50:30.781Z,30.35
2022-07-30T21:28:41.349Z,30.07
2022-07-30T21:32:22.402Z,30.09
2022-07-30T21:40:29.967Z,30.05
2022-07-30T21:44:11.818Z,30.07
2022-07-30T21:48:11.065Z,30.07
2022-07-30T21:52:22.963Z,30.05
2022-07-30T22:05:38.393Z,29.97
2022-07-30T22:09:45.592Z,29.96
2022-07-30T22:24:42.731Z,29.88
2022-07-30T22:33:06.977Z,29.85
2022-07-30T22:37:12.408Z,29.84
2022-07-30T22:54:13.070Z,29.77
2022-07-30T23:01:20.859Z,29.76
2022-07-30T23:08:29.970Z,29.71
2022-07-30T23:11:00.247Z,29.73
2022-07-30T23:13:30.439Z,29.73
2022-07-30T23:15:59.132Z,29.73
2022-07-30T23:18:28.860Z,29.73
2022-07-30T23:21:00.389Z,29.72
2022-07-30T23:23:30.766Z,29.74
2022-07-30T23:26:03.129Z,29.72
2022-07-30T23:28:33.618Z,29.72
2022-07-30T23:31:03.536Z,29.70
2022-07-30T23:33:34.002Z,29.69
2022-07-30T23:36:02.622Z,29.69
2022-07-30T23:38:31.627Z,29.67
2022-07-30T23:41:04.007Z,29.68
2022-07-30T23:43:34.212Z,29.66
2022-07-30T23:46:02.866Z,29.67
2022-07-30T23:48:32.198Z,29.64
2022-07-30T23:51:00.780Z,29.64
2022-07-30T23:53:29.284Z,29.62
2022-07-30T23:55:57.829Z,29.60
2022-07-30T23:58:26.702Z,29.59
